Terminal Aerodrome Forecast
Issued by NWS

Home | Current Version | Previous Version | Text Only | Print | Product List | Glossary On
Versions: 1 2 3 4 5 6 7 8 9 10 11 12 13 14 15 16 17 18 19
000
FTUS46 KSEW 182300
TAFBLI
TAF
KBLI 182320Z 1900/1924 22006KT P6SM SCT250
     FM190800 VRB03KT P6SM BKN100
     FM191700 16007KT P6SM BKN070
     FM192000 15011KT P6SM -RA BKN050=

USA.gov is the U.S. government's official web portal to all federal, state and local government web resources and services.